sensor_id;sensor_type;location;lat;lon;timestamp;temperature;humidity
31799;DHT22;18374;51.136;3.502;2023-06-22T00:00:34;16.50;99.90
31799;DHT22;18374;51.136;3.502;2023-06-22T00:03:01;16.60;99.90
31799;DHT22;18374;51.136;3.502;2023-06-22T00:05:29;16.60;99.90
31799;DHT22;18374;51.136;3.502;2023-06-22T00:07:57;16.50;99.90
31799;DHT22;18374;51.136;3.502;2023-06-22T00:10:25;16.50;99.90
31799;DHT22;18374;51.136;3.502;2023-06-22T00:12:53;16.50;99.90
31799;DHT22;18374;51.136;3.502;2023-06-22T00:15:21;16.40;99.90
31799;DHT22;18374;51.136;3.502;2023-06-22T00:17:49;16.40;99.90
31799;DHT22;18374;51.136;3.502;2023-06-22T00:20:18;16.30;99.90
31799;DHT22;18374;51.136;3.502;2023-06-22T00:22:46;16.20;99.90
31799;DHT22;18374;51.136;3.502;2023-06-22T00:25:15;16.10;99.90
31799;DHT22;18374;51.136;3.502;2023-06-22T00:27:43;16.10;99.90
31799;DHT22;18374;51.136;3.502;2023-06-22T00:30:11;16.20;99.90
31799;DHT22;18374;51.136;3.502;2023-06-22T00:32:39;16.20;99.90
31799;DHT22;18374;51.136;3.502;2023-06-22T00:35:07;16.20;99.90
31799;DHT22;18374;51.136;3.502;2023-06-22T00:37:36;16.10;99.90
31799;DHT22;18374;51.136;3.502;2023-06-22T00:40:06;16.10;99.90
31799;DHT22;18374;51.136;3.502;2023-06-22T00:42:36;16.10;99.90
31799;DHT22;18374;51.136;3.502;2023-06-22T00:45:05;16.10;99.90
31799;DHT22;18374;51.136;3.502;2023-06-22T00:47:36;15.90;99.90
31799;DHT22;18374;51.136;3.502;2023-06-22T00:50:06;15.90;99.90
31799;DHT22;18374;51.136;3.502;2023-06-22T00:52:38;15.90;99.90
31799;DHT22;18374;51.136;3.502;2023-06-22T00:55:10;15.70;99.90
31799;DHT22;18374;51.136;3.502;2023-06-22T00:57:38;15.60;99.90
31799;DHT22;18374;51.136;3.502;2023-06-22T01:00:07;15.70;99.90
31799;DHT22;18374;51.136;3.502;2023-06-22T01:02:36;15.80;99.90
31799;DHT22;18374;51.136;3.502;2023-06-22T01:05:06;15.90;99.90
31799;DHT22;18374;51.136;3.502;2023-06-22T01:10:52;15.80;99.90
31799;DHT22;18374;51.136;3.502;2023-06-22T01:16:31;15.70;99.90
31799;DHT22;18374;51.136;3.502;2023-06-22T01:19:09;15.70;99.90
31799;DHT22;18374;51.136;3.502;2023-06-22T01:21:43;15.70;99.90
31799;DHT22;18374;51.136;3.502;2023-06-22T01:24:32;15.80;99.90
31799;DHT22;18374;51.136;3.502;2023-06-22T01:29:55;15.50;99.90
31799;DHT22;18374;51.136;3.502;2023-06-22T01:32:33;15.50;99.90
31799;DHT22;18374;51.136;3.502;2023-06-22T01:35:05;15.50;99.90
31799;DHT22;18374;51.136;3.502;2023-06-22T01:37:36;15.40;99.90
31799;DHT22;18374;51.136;3.502;2023-06-22T01:40:08;15.40;99.90
31799;DHT22;18374;51.136;3.502;2023-06-22T01:42:37;15.40;99.90
31799;DHT22;18374;51.136;3.502;2023-06-22T01:45:07;15.40;99.90
31799;DHT22;18374;51.136;3.502;2023-06-22T01:47:39;15.50;99.90
31799;DHT22;18374;51.136;3.502;2023-06-22T01:50:09;15.40;99.90
31799;DHT22;18374;51.136;3.502;2023-06-22T01:52:38;15.30;99.90
31799;DHT22;18374;51.136;3.502;2023-06-22T01:55:06;15.30;99.90
31799;DHT22;18374;51.136;3.502;2023-06-22T01:57:35;15.30;99.90
31799;DHT22;18374;51.136;3.502;2023-06-22T02:02:52;15.40;99.90
31799;DHT22;18374;51.136;3.502;2023-06-22T02:05:33;15.40;99.90
31799;DHT22;18374;51.136;3.502;2023-06-22T02:08:16;15.40;99.90
31799;DHT22;18374;51.136;3.502;2023-06-22T02:10:49;15.40;99.90
31799;DHT22;18374;51.136;3.502;2023-06-22T02:13:18;15.40;99.90
31799;DHT22;18374;51.136;3.502;2023-06-22T02:15:47;15.30;99.90
31799;DHT22;18374;51.136;3.502;2023-06-22T02:18:15;15.20;99.90
31799;DHT22;18374;51.136;3.502;2023-06-22T02:20:43;15.20;99.90
31799;DHT22;18374;51.136;3.502;2023-06-22T02:23:11;15.20;99.90
31799;DHT22;18374;51.136;3.502;2023-06-22T02:25:38;15.10;99.90
31799;DHT22;18374;51.136;3.502;2023-06-22T02:28:07;15.10;99.90
31799;DHT22;18374;51.136;3.502;2023-06-22T02:30:34;15.00;99.90
31799;DHT22;18374;51.136;3.502;2023-06-22T02:33:02;15.00;99.90
31799;DHT22;18374;51.136;3.502;2023-06-22T02:35:30;15.00;99.90
31799;DHT22;18374;51.136;3.502;2023-06-22T02:38:00;15.00;99.90
31799;DHT22;18374;51.136;3.502;2023-06-22T02:40:29;15.10;99.90
31799;DHT22;18374;51.136;3.502;2023-06-22T02:42:58;15.10;99.90
31799;DHT22;18374;51.136;3.502;2023-06-22T02:45:29;15.10;99.90
31799;DHT22;18374;51.136;3.502;2023-06-22T02:47:58;15.10;99.90
31799;DHT22;18374;51.136;3.502;2023-06-22T02:50:26;15.10;99.90
31799;DHT22;18374;51.136;3.502;2023-06-22T02:52:54;15.10;99.90
31799;DHT22;18374;51.136;3.502;2023-06-22T02:55:22;15.10;99.90
31799;DHT22;18374;51.136;3.502;2023-06-22T02:57:55;15.20;99.90
31799;DHT22;18374;51.136;3.502;2023-06-22T03:00:25;15.00;99.90
31799;DHT22;18374;51.136;3.502;2023-06-22T03:02:58;15.00;99.90
31799;DHT22;18374;51.136;3.502;2023-06-22T03:05:26;15.00;99.90
31799;DHT22;18374;51.136;3.502;2023-06-22T03:07:55;15.00;99.90
31799;DHT22;18374;51.136;3.502;2023-06-22T03:10:23;15.00;99.90
31799;DHT22;18374;51.136;3.502;2023-06-22T03:12:51;15.00;99.90
31799;DHT22;18374;51.136;3.502;2023-06-22T03:15:19;15.00;99.90
31799;DHT22;18374;51.136;3.502;2023-06-22T03:17:50;15.00;99.90
31799;DHT22;18374;51.136;3.502;2023-06-22T03:20:18;14.90;99.90
31799;DHT22;18374;51.136;3.502;2023-06-22T03:22:46;15.00;99.90
31799;DHT22;18374;51.136;3.502;2023-06-22T03:25:16;15.10;99.90
31799;DHT22;18374;51.136;3.502;2023-06-22T03:27:46;15.10;99.90
31799;DHT22;18374;51.136;3.502;2023-06-22T03:30:15;15.10;99.90
31799;DHT22;18374;51.136;3.502;2023-06-22T03:32:45;15.10;99.90
31799;DHT22;18374;51.136;3.502;2023-06-22T03:35:14;15.00;99.90
31799;DHT22;18374;51.136;3.502;2023-06-22T03:37:42;15.00;99.90
31799;DHT22;18374;51.136;3.502;2023-06-22T03:40:10;15.00;99.90
31799;DHT22;18374;51.136;3.502;2023-06-22T03:42:39;15.00;99.90
31799;DHT22;18374;51.136;3.502;2023-06-22T03:45:09;15.10;99.90
31799;DHT22;18374;51.136;3.502;2023-06-22T03:47:37;15.10;99.90
31799;DHT22;18374;51.136;3.502;2023-06-22T03:50:06;15.00;99.90
31799;DHT22;18374;51.136;3.502;2023-06-22T03:52:34;15.10;99.90
31799;DHT22;18374;51.136;3.502;2023-06-22T03:55:02;15.10;99.90
31799;DHT22;18374;51.136;3.502;2023-06-22T03:57:30;15.20;99.90
31799;DHT22;18374;51.136;3.502;2023-06-22T03:59:58;15.20;99.90
31799;DHT22;18374;51.136;3.502;2023-06-22T04:02:26;15.30;99.90
31799;DHT22;18374;51.136;3.502;2023-06-22T04:04:53;15.40;99.90
31799;DHT22;18374;51.136;3.502;2023-06-22T04:07:21;15.40;99.90
31799;DHT22;18374;51.136;3.502;2023-06-22T04:09:49;15.40;99.90
31799;DHT22;18374;51.136;3.502;2023-06-22T04:12:17;15.40;99.90
31799;DHT22;18374;51.136;3.502;2023-06-22T04:14:44;15.40;99.90
31799;DHT22;18374;51.136;3.502;2023-06-22T04:17:12;15.50;99.90
31799;DHT22;18374;51.136;3.502;2023-06-22T04:19:42;15.50;99.90
31799;DHT22;18374;51.136;3.502;2023-06-22T04:22:09;15.60;99.90
31799;DHT22;18374;51.136;3.502;2023-06-22T04:24:37;15.60;99.90
31799;DHT22;18374;51.136;3.502;2023-06-22T04:27:05;15.70;99.90
31799;DHT22;18374;51.136;3.502;2023-06-22T04:29:33;15.70;99.90
31799;DHT22;18374;51.136;3.502;2023-06-22T04:32:01;15.70;99.90
31799;DHT22;18374;51.136;3.502;2023-06-22T04:34:32;15.70;99.90
31799;DHT22;18374;51.136;3.502;2023-06-22T04:37:00;15.60;99.90
31799;DHT22;18374;51.136;3.502;2023-06-22T04:39:28;15.70;99.90
31799;DHT22;18374;51.136;3.502;2023-06-22T04:41:55;15.70;99.90
31799;DHT22;18374;51.136;3.502;2023-06-22T04:44:28;15.80;99.90
31799;DHT22;18374;51.136;3.502;2023-06-22T04:46:58;15.80;99.90
31799;DHT22;18374;51.136;3.502;2023-06-22T04:49:31;15.90;99.90
31799;DHT22;18374;51.136;3.502;2023-06-22T04:52:07;15.90;99.90
31799;DHT22;18374;51.136;3.502;2023-06-22T04:54:38;16.00;99.90
31799;DHT22;18374;51.136;3.502;2023-06-22T04:57:07;16.00;99.90
31799;DHT22;18374;51.136;3.502;2023-06-22T04:59:39;16.10;99.90
31799;DHT22;18374;51.136;3.502;2023-06-22T05:02:09;16.20;99.90
31799;DHT22;18374;51.136;3.502;2023-06-22T05:04:37;16.30;99.90
31799;DHT22;18374;51.136;3.502;2023-06-22T05:07:08;16.40;99.90
31799;DHT22;18374;51.136;3.502;2023-06-22T05:09:36;16.60;99.90
31799;DHT22;18374;51.136;3.502;2023-06-22T05:12:04;16.70;99.90
31799;DHT22;18374;51.136;3.502;2023-06-22T05:14:36;16.80;99.90
31799;DHT22;18374;51.136;3.502;2023-06-22T05:17:04;16.90;99.90
31799;DHT22;18374;51.136;3.502;2023-06-22T05:19:31;17.00;99.90
31799;DHT22;18374;51.136;3.502;2023-06-22T05:22:01;17.00;99.90
31799;DHT22;18374;51.136;3.502;2023-06-22T05:24:29;17.10;99.90
31799;DHT22;18374;51.136;3.502;2023-06-22T05:26:57;17.20;99.90
31799;DHT22;18374;51.136;3.502;2023-06-22T05:29:24;17.20;99.90
31799;DHT22;18374;51.136;3.502;2023-06-22T05:31:54;17.30;99.90
31799;DHT22;18374;51.136;3.502;2023-06-22T05:34:21;17.30;99.90
31799;DHT22;18374;51.136;3.502;2023-06-22T05:36:49;17.30;99.90
31799;DHT22;18374;51.136;3.502;2023-06-22T05:39:17;17.30;99.90
31799;DHT22;18374;51.136;3.502;2023-06-22T05:41:46;17.20;99.90
31799;DHT22;18374;51.136;3.502;2023-06-22T05:44:13;17.20;99.90
31799;DHT22;18374;51.136;3.502;2023-06-22T05:46:44;17.20;99.90
31799;DHT22;18374;51.136;3.502;2023-06-22T05:49:14;17.20;99.90
31799;DHT22;18374;51.136;3.502;2023-06-22T05:51:42;17.30;99.90
31799;DHT22;18374;51.136;3.502;2023-06-22T05:54:10;17.40;99.90
31799;DHT22;18374;51.136;3.502;2023-06-22T05:56:40;17.40;99.90
31799;DHT22;18374;51.136;3.502;2023-06-22T05:59:08;17.50;99.90
31799;DHT22;18374;51.136;3.502;2023-06-22T06:01:36;17.60;99.90
31799;DHT22;18374;51.136;3.502;2023-06-22T06:04:04;17.60;99.90
31799;DHT22;18374;51.136;3.502;2023-06-22T06:06:32;17.70;99.90
31799;DHT22;18374;51.136;3.502;2023-06-22T06:09:04;17.80;99.90
31799;DHT22;18374;51.136;3.502;2023-06-22T06:11:33;17.80;99.90
31799;DHT22;18374;51.136;3.502;2023-06-22T06:14:00;18.00;99.90
31799;DHT22;18374;51.136;3.502;2023-06-22T06:16:28;18.00;99.90
31799;DHT22;18374;51.136;3.502;2023-06-22T06:18:56;18.10;99.90
31799;DHT22;18374;51.136;3.502;2023-06-22T06:21:25;18.20;99.90
31799;DHT22;18374;51.136;3.502;2023-06-22T06:23:57;18.20;99.90
31799;DHT22;18374;51.136;3.502;2023-06-22T06:26:26;18.30;99.90
31799;DHT22;18374;51.136;3.502;2023-06-22T06:28:57;18.40;99.90
31799;DHT22;18374;51.136;3.502;2023-06-22T06:31:25;18.40;99.90
31799;DHT22;18374;51.136;3.502;2023-06-22T06:33:55;18.50;99.90
31799;DHT22;18374;51.136;3.502;2023-06-22T06:36:23;18.40;99.90
31799;DHT22;18374;51.136;3.502;2023-06-22T06:38:50;18.50;99.90
31799;DHT22;18374;51.136;3.502;2023-06-22T06:41:19;18.50;99.90
31799;DHT22;18374;51.136;3.502;2023-06-22T06:43:47;18.60;99.90
31799;DHT22;18374;51.136;3.502;2023-06-22T06:46:15;18.80;99.90
31799;DHT22;18374;51.136;3.502;2023-06-22T06:48:43;18.80;99.90
31799;DHT22;18374;51.136;3.502;2023-06-22T06:51:10;18.80;99.90
31799;DHT22;18374;51.136;3.502;2023-06-22T06:53:38;18.90;99.90
31799;DHT22;18374;51.136;3.502;2023-06-22T06:56:06;19.00;99.90
31799;DHT22;18374;51.136;3.502;2023-06-22T06:58:33;19.10;99.90
31799;DHT22;18374;51.136;3.502;2023-06-22T07:01:01;19.20;99.90
31799;DHT22;18374;51.136;3.502;2023-06-22T07:03:30;19.30;99.90
31799;DHT22;18374;51.136;3.502;2023-06-22T07:05:59;19.40;99.90
31799;DHT22;18374;51.136;3.502;2023-06-22T07:08:27;19.50;99.90
31799;DHT22;18374;51.136;3.502;2023-06-22T07:10:56;19.70;99.90
31799;DHT22;18374;51.136;3.502;2023-06-22T07:13:24;19.80;99.90
31799;DHT22;18374;51.136;3.502;2023-06-22T07:15:52;19.90;99.90
31799;DHT22;18374;51.136;3.502;2023-06-22T07:18:19;20.00;99.90
31799;DHT22;18374;51.136;3.502;2023-06-22T07:20:47;20.10;99.90
31799;DHT22;18374;51.136;3.502;2023-06-22T07:23:15;20.10;99.90
31799;DHT22;18374;51.136;3.502;2023-06-22T07:25:44;20.20;99.90
31799;DHT22;18374;51.136;3.502;2023-06-22T07:28:12;20.30;99.90
31799;DHT22;18374;51.136;3.502;2023-06-22T07:30:39;20.40;99.90
31799;DHT22;18374;51.136;3.502;2023-06-22T07:33:07;20.40;99.90
31799;DHT22;18374;51.136;3.502;2023-06-22T07:35:36;20.50;99.90
31799;DHT22;18374;51.136;3.502;2023-06-22T07:38:04;20.70;99.90
31799;DHT22;18374;51.136;3.502;2023-06-22T07:40:33;20.90;99.90
31799;DHT22;18374;51.136;3.502;2023-06-22T07:43:02;21.00;99.90
31799;DHT22;18374;51.136;3.502;2023-06-22T07:45:30;21.00;99.90
31799;DHT22;18374;51.136;3.502;2023-06-22T07:48:01;20.90;99.90
31799;DHT22;18374;51.136;3.502;2023-06-22T07:50:29;20.90;99.90
31799;DHT22;18374;51.136;3.502;2023-06-22T07:52:57;20.90;99.90
31799;DHT22;18374;51.136;3.502;2023-06-22T07:55:25;21.00;99.90
31799;DHT22;18374;51.136;3.502;2023-06-22T07:57:53;21.00;99.90
31799;DHT22;18374;51.136;3.502;2023-06-22T08:00:21;21.00;99.90
31799;DHT22;18374;51.136;3.502;2023-06-22T08:02:49;20.90;99.90
31799;DHT22;18374;51.136;3.502;2023-06-22T08:05:17;20.90;99.90
31799;DHT22;18374;51.136;3.502;2023-06-22T08:08:00;21.00;99.90
31799;DHT22;18374;51.136;3.502;2023-06-22T08:10:28;20.90;99.90
31799;DHT22;18374;51.136;3.502;2023-06-22T08:12:56;20.90;99.90
31799;DHT22;18374;51.136;3.502;2023-06-22T08:15:25;20.90;99.90
31799;DHT22;18374;51.136;3.502;2023-06-22T08:17:54;20.90;99.90
31799;DHT22;18374;51.136;3.502;2023-06-22T08:20:22;21.10;99.90
31799;DHT22;18374;51.136;3.502;2023-06-22T08:22:50;21.10;99.90
31799;DHT22;18374;51.136;3.502;2023-06-22T08:25:18;21.10;99.90
31799;DHT22;18374;51.136;3.502;2023-06-22T08:27:46;21.00;99.90
31799;DHT22;18374;51.136;3.502;2023-06-22T08:30:17;20.90;99.90
31799;DHT22;18374;51.136;3.502;2023-06-22T08:32:48;20.90;99.90
31799;DHT22;18374;51.136;3.502;2023-06-22T08:35:16;20.90;99.90
31799;DHT22;18374;51.136;3.502;2023-06-22T08:37:43;20.90;99.90
31799;DHT22;18374;51.136;3.502;2023-06-22T08:40:18;20.90;99.90
31799;DHT22;18374;51.136;3.502;2023-06-22T08:42:47;20.90;99.90
31799;DHT22;18374;51.136;3.502;2023-06-22T08:45:16;20.90;99.90
31799;DHT22;18374;51.136;3.502;2023-06-22T08:47:43;21.00;99.90
31799;DHT22;18374;51.136;3.502;2023-06-22T08:50:12;21.00;99.90
31799;DHT22;18374;51.136;3.502;2023-06-22T08:52:40;20.90;99.90
31799;DHT22;18374;51.136;3.502;2023-06-22T08:55:13;21.00;99.90
31799;DHT22;18374;51.136;3.502;2023-06-22T08:57:41;21.00;99.90
31799;DHT22;18374;51.136;3.502;2023-06-22T09:00:10;21.10;99.90
31799;DHT22;18374;51.136;3.502;2023-06-22T09:02:46;21.10;99.90
31799;DHT22;18374;51.136;3.502;2023-06-22T09:05:15;21.10;99.90
31799;DHT22;18374;51.136;3.502;2023-06-22T09:07:43;21.00;99.90
31799;DHT22;18374;51.136;3.502;2023-06-22T09:10:11;21.00;99.90
31799;DHT22;18374;51.136;3.502;2023-06-22T09:12:39;21.00;99.90
31799;DHT22;18374;51.136;3.502;2023-06-22T09:15:09;20.90;99.90
31799;DHT22;18374;51.136;3.502;2023-06-22T09:17:43;21.00;99.90
31799;DHT22;18374;51.136;3.502;2023-06-22T09:20:14;20.80;99.90
31799;DHT22;18374;51.136;3.502;2023-06-22T09:22:43;20.80;99.90
31799;DHT22;18374;51.136;3.502;2023-06-22T09:25:11;20.80;99.90
31799;DHT22;18374;51.136;3.502;2023-06-22T09:27:39;20.80;99.90
31799;DHT22;18374;51.136;3.502;2023-06-22T09:30:07;20.90;99.90
31799;DHT22;18374;51.136;3.502;2023-06-22T09:32:35;20.90;99.90
31799;DHT22;18374;51.136;3.502;2023-06-22T09:35:04;20.90;99.90
31799;DHT22;18374;51.136;3.502;2023-06-22T09:37:34;20.80;99.90
31799;DHT22;18374;51.136;3.502;2023-06-22T09:40:02;20.80;99.90
31799;DHT22;18374;51.136;3.502;2023-06-22T09:42:35;20.80;99.90
31799;DHT22;18374;51.136;3.502;2023-06-22T09:45:04;20.80;99.90
31799;DHT22;18374;51.136;3.502;2023-06-22T09:47:32;20.80;99.90
31799;DHT22;18374;51.136;3.502;2023-06-22T09:50:00;20.70;99.90
31799;DHT22;18374;51.136;3.502;2023-06-22T09:52:28;20.80;99.90
31799;DHT22;18374;51.136;3.502;2023-06-22T09:55:14;20.80;99.90
31799;DHT22;18374;51.136;3.502;2023-06-22T09:57:43;20.90;99.90
31799;DHT22;18374;51.136;3.502;2023-06-22T10:00:11;20.90;99.90
31799;DHT22;18374;51.136;3.502;2023-06-22T10:02:44;20.80;99.90
31799;DHT22;18374;51.136;3.502;2023-06-22T10:05:12;20.90;99.90
31799;DHT22;18374;51.136;3.502;2023-06-22T10:07:40;20.90;99.90
31799;DHT22;18374;51.136;3.502;2023-06-22T10:10:12;20.80;99.90
31799;DHT22;18374;51.136;3.502;2023-06-22T10:12:48;20.90;99.90
31799;DHT22;18374;51.136;3.502;2023-06-22T10:15:22;20.80;99.90
31799;DHT22;18374;51.136;3.502;2023-06-22T10:17:50;20.80;99.90
31799;DHT22;18374;51.136;3.502;2023-06-22T10:20:18;20.90;99.90
31799;DHT22;18374;51.136;3.502;2023-06-22T10:22:48;20.90;99.90
31799;DHT22;18374;51.136;3.502;2023-06-22T10:25:15;20.90;99.90
31799;DHT22;18374;51.136;3.502;2023-06-22T10:27:44;20.90;99.90
31799;DHT22;18374;51.136;3.502;2023-06-22T10:30:12;20.90;99.90
31799;DHT22;18374;51.136;3.502;2023-06-22T10:32:42;20.80;99.90
31799;DHT22;18374;51.136;3.502;2023-06-22T10:35:13;20.70;99.90
31799;DHT22;18374;51.136;3.502;2023-06-22T10:37:44;20.60;99.90
31799;DHT22;18374;51.136;3.502;2023-06-22T10:40:14;20.70;99.90
31799;DHT22;18374;51.136;3.502;2023-06-22T10:42:43;20.70;99.90
31799;DHT22;18374;51.136;3.502;2023-06-22T10:45:11;20.60;99.90
31799;DHT22;18374;51.136;3.502;2023-06-22T10:47:39;20.60;99.90
31799;DHT22;18374;51.136;3.502;2023-06-22T10:50:10;20.60;99.90
31799;DHT22;18374;51.136;3.502;2023-06-22T10:52:39;20.60;99.90
31799;DHT22;18374;51.136;3.502;2023-06-22T10:55:09;20.60;99.90
31799;DHT22;18374;51.136;3.502;2023-06-22T10:57:38;20.50;99.90
31799;DHT22;18374;51.136;3.502;2023-06-22T11:00:09;20.60;99.90
31799;DHT22;18374;51.136;3.502;2023-06-22T11:02:38;20.60;99.90
31799;DHT22;18374;51.136;3.502;2023-06-22T11:05:07;20.60;99.90
31799;DHT22;18374;51.136;3.502;2023-06-22T11:07:35;20.60;99.90
31799;DHT22;18374;51.136;3.502;2023-06-22T11:10:03;20.60;99.90
31799;DHT22;18374;51.136;3.502;2023-06-22T11:12:31;20.60;99.90
31799;DHT22;18374;51.136;3.502;2023-06-22T11:14:59;20.60;99.90
31799;DHT22;18374;51.136;3.502;2023-06-22T11:17:27;20.50;99.90
31799;DHT22;18374;51.136;3.502;2023-06-22T11:19:55;20.60;99.90
31799;DHT22;18374;51.136;3.502;2023-06-22T11:22:22;20.50;99.90
31799;DHT22;18374;51.136;3.502;2023-06-22T11:24:50;20.60;99.90
31799;DHT22;18374;51.136;3.502;2023-06-22T11:27:18;20.70;99.90
31799;DHT22;18374;51.136;3.502;2023-06-22T11:29:46;20.80;99.90
31799;DHT22;18374;51.136;3.502;2023-06-22T11:32:13;20.80;99.90
31799;DHT22;18374;51.136;3.502;2023-06-22T11:34:41;20.90;99.90
31799;DHT22;18374;51.136;3.502;2023-06-22T11:37:09;20.90;99.90
31799;DHT22;18374;51.136;3.502;2023-06-22T11:39:37;20.90;99.90
31799;DHT22;18374;51.136;3.502;2023-06-22T11:42:09;20.90;99.90
31799;DHT22;18374;51.136;3.502;2023-06-22T11:44:38;20.90;99.90
31799;DHT22;18374;51.136;3.502;2023-06-22T11:47:06;20.80;99.90
31799;DHT22;18374;51.136;3.502;2023-06-22T11:49:34;20.70;99.90
31799;DHT22;18374;51.136;3.502;2023-06-22T11:52:02;20.70;99.90
31799;DHT22;18374;51.136;3.502;2023-06-22T11:54:29;20.60;99.90
31799;DHT22;18374;51.136;3.502;2023-06-22T11:56:57;20.60;99.90
31799;DHT22;18374;51.136;3.502;2023-06-22T11:59:25;20.50;99.90
31799;DHT22;18374;51.136;3.502;2023-06-22T12:01:52;20.50;99.90
31799;DHT22;18374;51.136;3.502;2023-06-22T12:04:20;20.50;99.90
31799;DHT22;18374;51.136;3.502;2023-06-22T12:06:48;20.50;99.90
31799;DHT22;18374;51.136;3.502;2023-06-22T12:09:16;20.50;99.90
31799;DHT22;18374;51.136;3.502;2023-06-22T12:11:44;20.50;99.90
31799;DHT22;18374;51.136;3.502;2023-06-22T12:14:11;20.50;99.90
31799;DHT22;18374;51.136;3.502;2023-06-22T12:16:39;20.50;99.90
31799;DHT22;18374;51.136;3.502;2023-06-22T12:19:07;20.50;99.90
31799;DHT22;18374;51.136;3.502;2023-06-22T12:21:35;20.50;99.90
31799;DHT22;18374;51.136;3.502;2023-06-22T12:24:02;20.50;99.90
31799;DHT22;18374;51.136;3.502;2023-06-22T12:26:30;20.40;99.90
31799;DHT22;18374;51.136;3.502;2023-06-22T12:28:58;20.50;99.90
31799;DHT22;18374;51.136;3.502;2023-06-22T12:31:25;20.40;99.90
31799;DHT22;18374;51.136;3.502;2023-06-22T12:33:53;20.50;99.90
31799;DHT22;18374;51.136;3.502;2023-06-22T12:36:21;20.40;99.90
31799;DHT22;18374;51.136;3.502;2023-06-22T12:38:49;20.40;99.90
31799;DHT22;18374;51.136;3.502;2023-06-22T12:41:17;20.40;99.90
31799;DHT22;18374;51.136;3.502;2023-06-22T12:43:45;20.50;99.90
31799;DHT22;18374;51.136;3.502;2023-06-22T12:46:13;20.40;99.90
31799;DHT22;18374;51.136;3.502;2023-06-22T12:48:41;20.40;99.90
31799;DHT22;18374;51.136;3.502;2023-06-22T12:51:10;20.40;99.90
31799;DHT22;18374;51.136;3.502;2023-06-22T12:53:37;20.40;99.90
31799;DHT22;18374;51.136;3.502;2023-06-22T12:56:05;20.40;99.90
31799;DHT22;18374;51.136;3.502;2023-06-22T12:58:33;20.40;99.90
31799;DHT22;18374;51.136;3.502;2023-06-22T13:01:00;20.40;99.90
31799;DHT22;18374;51.136;3.502;2023-06-22T13:03:28;20.30;99.90
31799;DHT22;18374;51.136;3.502;2023-06-22T13:05:56;20.30;99.90
31799;DHT22;18374;51.136;3.502;2023-06-22T13:08:24;20.30;99.90
31799;DHT22;18374;51.136;3.502;2023-06-22T13:11:11;20.30;99.90
31799;DHT22;18374;51.136;3.502;2023-06-22T13:13:39;20.20;99.90
31799;DHT22;18374;51.136;3.502;2023-06-22T13:16:07;20.10;99.90
31799;DHT22;18374;51.136;3.502;2023-06-22T13:18:36;20.00;99.90
31799;DHT22;18374;51.136;3.502;2023-06-22T13:21:05;20.00;99.90
31799;DHT22;18374;51.136;3.502;2023-06-22T13:23:34;20.00;99.90
31799;DHT22;18374;51.136;3.502;2023-06-22T13:26:03;20.00;99.90
31799;DHT22;18374;51.136;3.502;2023-06-22T13:28:31;19.90;99.90
31799;DHT22;18374;51.136;3.502;2023-06-22T13:30:59;19.90;99.90
31799;DHT22;18374;51.136;3.502;2023-06-22T13:33:27;19.90;99.90
31799;DHT22;18374;51.136;3.502;2023-06-22T13:35:55;20.00;99.90
31799;DHT22;18374;51.136;3.502;2023-06-22T13:38:23;20.10;99.90
31799;DHT22;18374;51.136;3.502;2023-06-22T13:40:51;20.10;99.90
31799;DHT22;18374;51.136;3.502;2023-06-22T13:43:18;20.10;99.90
31799;DHT22;18374;51.136;3.502;2023-06-22T13:45:46;20.10;99.90
31799;DHT22;18374;51.136;3.502;2023-06-22T13:48:14;20.10;99.90
31799;DHT22;18374;51.136;3.502;2023-06-22T13:50:42;20.20;99.90
31799;DHT22;18374;51.136;3.502;2023-06-22T13:53:10;20.10;99.90
31799;DHT22;18374;51.136;3.502;2023-06-22T13:55:39;20.10;99.90
31799;DHT22;18374;51.136;3.502;2023-06-22T13:58:07;20.00;99.90
31799;DHT22;18374;51.136;3.502;2023-06-22T14:00:35;20.00;99.90
31799;DHT22;18374;51.136;3.502;2023-06-22T14:03:03;20.10;99.90
31799;DHT22;18374;51.136;3.502;2023-06-22T14:05:31;20.10;99.90
31799;DHT22;18374;51.136;3.502;2023-06-22T14:07:59;20.10;99.90
31799;DHT22;18374;51.136;3.502;2023-06-22T14:10:27;20.20;99.90
31799;DHT22;18374;51.136;3.502;2023-06-22T14:12:55;20.30;99.90
31799;DHT22;18374;51.136;3.502;2023-06-22T14:15:23;20.30;99.90
31799;DHT22;18374;51.136;3.502;2023-06-22T14:17:50;20.30;99.90
31799;DHT22;18374;51.136;3.502;2023-06-22T14:20:18;20.30;99.90
31799;DHT22;18374;51.136;3.502;2023-06-22T14:22:46;20.30;99.90
31799;DHT22;18374;51.136;3.502;2023-06-22T14:25:14;20.40;99.90
31799;DHT22;18374;51.136;3.502;2023-06-22T14:27:41;20.30;99.90
31799;DHT22;18374;51.136;3.502;2023-06-22T14:30:09;20.30;99.90
31799;DHT22;18374;51.136;3.502;2023-06-22T14:32:37;20.40;99.90
31799;DHT22;18374;51.136;3.502;2023-06-22T14:35:05;20.40;99.90
31799;DHT22;18374;51.136;3.502;2023-06-22T14:37:33;20.50;99.90
31799;DHT22;18374;51.136;3.502;2023-06-22T14:40:00;20.50;99.90
31799;DHT22;18374;51.136;3.502;2023-06-22T14:42:28;20.60;99.90
31799;DHT22;18374;51.136;3.502;2023-06-22T14:44:57;20.80;99.90
31799;DHT22;18374;51.136;3.502;2023-06-22T14:47:25;20.70;99.90
31799;DHT22;18374;51.136;3.502;2023-06-22T14:49:52;20.80;99.90
31799;DHT22;18374;51.136;3.502;2023-06-22T14:52:20;20.90;99.90
31799;DHT22;18374;51.136;3.502;2023-06-22T14:54:48;20.90;99.90
31799;DHT22;18374;51.136;3.502;2023-06-22T14:57:18;20.90;99.90
31799;DHT22;18374;51.136;3.502;2023-06-22T14:59:47;20.80;99.90
31799;DHT22;18374;51.136;3.502;2023-06-22T15:02:16;20.90;99.90
31799;DHT22;18374;51.136;3.502;2023-06-22T15:04:44;20.70;99.90
31799;DHT22;18374;51.136;3.502;2023-06-22T15:07:12;20.70;99.90
31799;DHT22;18374;51.136;3.502;2023-06-22T15:09:40;20.70;99.90
31799;DHT22;18374;51.136;3.502;2023-06-22T15:12:10;20.70;99.90
31799;DHT22;18374;51.136;3.502;2023-06-22T15:14:42;20.90;99.90
31799;DHT22;18374;51.136;3.502;2023-06-22T15:17:10;20.90;99.90
31799;DHT22;18374;51.136;3.502;2023-06-22T15:19:38;21.00;99.90
31799;DHT22;18374;51.136;3.502;2023-06-22T15:22:07;20.80;99.90
31799;DHT22;18374;51.136;3.502;2023-06-22T15:24:35;20.80;99.90
31799;DHT22;18374;51.136;3.502;2023-06-22T15:27:03;20.80;99.90
31799;DHT22;18374;51.136;3.502;2023-06-22T15:29:31;20.80;99.90
31799;DHT22;18374;51.136;3.502;2023-06-22T15:32:01;20.60;99.90
31799;DHT22;18374;51.136;3.502;2023-06-22T15:34:29;20.60;99.90
31799;DHT22;18374;51.136;3.502;2023-06-22T15:36:58;20.60;99.90
31799;DHT22;18374;51.136;3.502;2023-06-22T15:39:26;20.60;99.90
31799;DHT22;18374;51.136;3.502;2023-06-22T15:41:54;20.60;99.90
31799;DHT22;18374;51.136;3.502;2023-06-22T15:44:23;20.50;99.90
31799;DHT22;18374;51.136;3.502;2023-06-22T15:46:50;20.40;99.90
31799;DHT22;18374;51.136;3.502;2023-06-22T15:49:18;20.40;99.90
31799;DHT22;18374;51.136;3.502;2023-06-22T15:51:46;20.40;99.90